createdAt,value
2018-04-24T00:00:37.726Z,100756.92
2018-04-24T00:03:06.083Z,100757.85
2018-04-24T00:05:34.398Z,100754.46
2018-04-24T00:08:02.720Z,100752.36
2018-04-24T00:10:31.811Z,100749.31
2018-04-24T00:13:00.938Z,100753.30
2018-04-24T00:15:29.246Z,100758.31
2018-04-24T00:17:57.648Z,100760.58
2018-04-24T00:20:25.958Z,100762.28
2018-04-24T00:22:54.298Z,100765.77
2018-04-24T00:25:22.623Z,100754.75
2018-04-24T00:27:50.930Z,100761.41
2018-04-24T00:30:19.259Z,100760.65
2018-04-24T00:32:48.343Z,100764.53
2018-04-24T00:35:17.442Z,100763.52
2018-04-24T00:37:46.527Z,100766.37
2018-04-24T00:40:14.876Z,100763.03
2018-04-24T00:42:43.185Z,100759.00
2018-04-24T00:45:12.273Z,100765.27
2018-04-24T00:47:40.590Z,100765.69
2018-04-24T00:50:08.907Z,100764.73
2018-04-24T00:52:37.241Z,100774.81
2018-04-24T00:55:05.604Z,100776.03
2018-04-24T00:57:33.982Z,100776.73
2018-04-24T01:00:03.079Z,100774.74
2018-04-24T01:02:31.452Z,100773.72
2018-04-24T01:05:00.529Z,100780.67
2018-04-24T01:07:28.848Z,100774.92
2018-04-24T01:09:57.185Z,100783.25
2018-04-24T01:12:25.523Z,100785.05
2018-04-24T01:14:53.871Z,100787.25
2018-04-24T01:17:22.219Z,100790.39
2018-04-24T01:19:51.385Z,100794.48
2018-04-24T01:22:19.726Z,100795.49
2018-04-24T01:24:48.034Z,100790.78
2018-04-24T01:27:16.391Z,100796.14
2018-04-24T01:29:44.719Z,100796.86
2018-04-24T01:32:13.096Z,100802.36
2018-04-24T01:34:41.416Z,100798.15
2018-04-24T01:37:09.771Z,100801.02
2018-04-24T01:39:38.847Z,100799.48
2018-04-24T01:42:07.168Z,100794.58
2018-04-24T01:44:35.536Z,100802.61
2018-04-24T01:47:03.866Z,100805.73
2018-04-24T01:49:32.210Z,100806.63
2018-04-24T01:52:01.344Z,100793.25
2018-04-24T01:54:29.712Z,100807.05
2018-04-24T01:56:58.439Z,100776.28
2018-04-24T01:59:27.537Z,100811.91
2018-04-24T02:01:56.663Z,100818.58
2018-04-24T02:04:25.006Z,100814.13
2018-04-24T02:06:54.095Z,100809.69
2018-04-24T02:09:23.193Z,100814.20
2018-04-24T02:11:52.353Z,100814.43
2018-04-24T02:14:20.719Z,100815.97
2018-04-24T02:16:49.037Z,100818.41
2018-04-24T02:19:18.164Z,100819.91
2018-04-24T02:21:46.510Z,100826.19
2018-04-24T02:24:15.590Z,100824.06
2018-04-24T02:26:43.913Z,100831.14
2018-04-24T02:29:12.279Z,100831.25
2018-04-24T02:31:40.620Z,100825.48
2018-04-24T02:34:08.955Z,100829.08
2018-04-24T02:36:37.300Z,100822.50
2018-04-24T02:39:06.500Z,100823.08
2018-04-24T02:41:35.609Z,100825.44
2018-04-24T02:44:03.929Z,100818.02
2018-04-24T02:46:32.382Z,100820.66
2018-04-24T02:49:00.758Z,100821.64
2018-04-24T02:51:29.062Z,100830.44
2018-04-24T02:53:57.397Z,100827.95
2018-04-24T02:56:26.100Z,100824.13
2018-04-24T02:58:54.452Z,100822.03
2018-04-24T03:01:22.748Z,100819.06
2018-04-24T03:03:51.054Z,100828.77
2018-04-24T03:06:19.417Z,100832.35
2018-04-24T03:08:47.785Z,100832.81
2018-04-24T03:11:16.608Z,100831.06
2018-04-24T03:13:44.973Z,100838.20
2018-04-24T03:16:13.311Z,100831.48
2018-04-24T03:18:41.663Z,100829.20
2018-04-24T03:21:12.408Z,100830.65
2018-04-24T03:23:40.794Z,100834.15
2018-04-24T03:26:09.631Z,100830.16
2018-04-24T03:28:37.969Z,100835.54
2018-04-24T03:31:06.337Z,100837.78
2018-04-24T03:33:34.717Z,100840.05
2018-04-24T03:36:03.161Z,100841.81
2018-04-24T03:38:31.566Z,100836.58
2018-04-24T03:41:00.702Z,100845.36
2018-04-24T03:43:29.007Z,100836.67
2018-04-24T03:45:57.352Z,100841.16
2018-04-24T03:48:25.693Z,100843.43
2018-04-24T03:50:54.008Z,100844.75
2018-04-24T03:53:22.356Z,100839.39
2018-04-24T03:55:50.698Z,100834.10
2018-04-24T03:58:19.018Z,100835.44
2018-04-24T04:00:47.378Z,100837.63
2018-04-24T04:03:17.006Z,100834.17
2018-04-24T04:05:45.346Z,100834.95
2018-04-24T04:08:13.706Z,100834.90
2018-04-24T04:10:42.074Z,100832.27
2018-04-24T04:13:10.418Z,100831.80
2018-04-24T04:15:38.729Z,100833.48
2018-04-24T04:18:24.753Z,100832.58
2018-04-24T04:21:11.346Z,100835.56
2018-04-24T04:23:58.122Z,100832.83
2018-04-24T04:26:26.466Z,100827.39
2018-04-24T04:28:55.551Z,100819.77
2018-04-24T04:31:23.907Z,100820.02
2018-04-24T04:33:52.254Z,100821.19
2018-04-24T04:36:20.596Z,100817.94
2018-04-24T04:38:49.714Z,100819.53
2018-04-24T04:41:18.039Z,100825.54
2018-04-24T04:43:46.379Z,100820.09
2018-04-24T04:46:14.716Z,100825.62
2018-04-24T04:48:43.847Z,100830.77
2018-04-24T04:51:12.230Z,100839.88
2018-04-24T04:53:40.606Z,100834.41
2018-04-24T04:56:09.053Z,100837.67
2018-04-24T04:58:37.321Z,100829.95
2018-04-24T05:01:06.408Z,100833.22
2018-04-24T05:03:35.551Z,100829.06
2018-04-24T05:06:04.271Z,100827.95
2018-04-24T05:08:32.615Z,100780.04
2018-04-24T05:11:00.956Z,100820.91
2018-04-24T05:13:29.282Z,100818.50
2018-04-24T05:15:57.628Z,100820.80
2018-04-24T05:18:25.967Z,100815.06
2018-04-24T05:20:55.028Z,100816.74
2018-04-24T05:23:23.392Z,100814.38
2018-04-24T05:25:51.742Z,100815.39
2018-04-24T05:28:20.072Z,100814.35
2018-04-24T05:30:48.440Z,100812.60
2018-04-24T05:33:16.765Z,100816.08
2018-04-24T05:35:45.877Z,100815.22
2018-04-24T05:38:14.274Z,100813.30
2018-04-24T05:40:42.609Z,100809.91
2018-04-24T05:43:11.694Z,100814.55
2018-04-24T05:45:46.759Z,100815.30
2018-04-24T05:48:15.200Z,100809.18
2018-04-24T05:50:43.693Z,100814.26
2018-04-24T05:53:12.068Z,100821.88
2018-04-24T05:55:40.532Z,100828.42
2018-04-24T05:58:08.856Z,100828.43
2018-04-24T06:00:37.189Z,100831.00
2018-04-24T06:03:05.617Z,100825.95
2018-04-24T06:05:34.831Z,100820.28
2018-04-24T06:08:03.230Z,100823.56
2018-04-24T06:10:31.802Z,100818.53
2018-04-24T06:13:00.757Z,100819.48
2018-04-24T06:15:29.124Z,100811.30
2018-04-24T06:18:01.369Z,100815.68
2018-04-24T06:20:29.773Z,100807.77
2018-04-24T06:22:59.479Z,100808.30
2018-04-24T06:25:27.889Z,100807.20
2018-04-24T06:27:56.264Z,100797.52
2018-04-24T06:30:25.148Z,100798.25
2018-04-24T06:32:53.501Z,100808.59
2018-04-24T06:35:23.392Z,100813.62
2018-04-24T06:37:51.784Z,100813.79
2018-04-24T06:40:20.924Z,100821.57
2018-04-24T06:42:49.252Z,100822.67
2018-04-24T06:45:17.669Z,100830.81
2018-04-24T06:47:45.999Z,100832.17
2018-04-24T06:50:14.829Z,100842.03
2018-04-24T06:52:43.166Z,100832.41
2018-04-24T06:55:11.518Z,100832.89
2018-04-24T06:57:39.868Z,100832.27
2018-04-24T07:00:08.295Z,100829.63
2018-04-24T07:02:36.660Z,100830.42
2018-04-24T07:05:05.020Z,100821.34
2018-04-24T07:07:33.400Z,100819.35
2018-04-24T07:10:01.736Z,100819.47
2018-04-24T07:12:30.832Z,100819.69
2018-04-24T07:14:59.977Z,100812.44
2018-04-24T07:17:28.533Z,100813.30
2018-04-24T07:19:56.908Z,100824.92
2018-04-24T07:22:25.656Z,100818.71
2018-04-24T07:24:53.982Z,100816.49
2018-04-24T07:27:22.346Z,100822.25
2018-04-24T07:29:50.696Z,100825.15
2018-04-24T07:32:19.060Z,100820.73
2018-04-24T07:34:47.474Z,100813.60
2018-04-24T07:37:17.284Z,100805.92
2018-04-24T07:39:46.405Z,100804.62
2018-04-24T07:42:14.741Z,100803.41
2018-04-24T07:44:43.889Z,100792.27
2018-04-24T07:47:12.248Z,100783.31
2018-04-24T07:49:40.623Z,100785.50
2018-04-24T07:52:08.990Z,100784.37
2018-04-24T07:54:37.395Z,100785.59
2018-04-24T07:57:06.531Z,100780.89
2018-04-24T07:59:34.887Z,100780.98
2018-04-24T08:02:03.235Z,100777.27
2018-04-24T08:04:31.593Z,100772.50
2018-04-24T08:07:00.702Z,100779.68
2018-04-24T08:09:29.072Z,100773.11
2018-04-24T08:11:58.184Z,100769.23
2018-04-24T08:14:26.553Z,100770.02
2018-04-24T08:16:54.886Z,100762.94
2018-04-24T08:19:23.252Z,100754.81
2018-04-24T08:21:57.139Z,100742.82
2018-04-24T08:24:26.275Z,100743.89
2018-04-24T08:26:54.594Z,100737.27
2018-04-24T08:29:22.946Z,100735.34
2018-04-24T08:31:52.057Z,100734.33
2018-04-24T08:34:20.422Z,100736.38
2018-04-24T08:36:49.531Z,100737.28
2018-04-24T08:39:17.909Z,100729.64
2018-04-24T08:41:46.271Z,100728.66
2018-04-24T08:44:15.398Z,100734.14
2018-04-24T08:46:43.735Z,100735.45
2018-04-24T08:49:12.134Z,100741.16
2018-04-24T08:51:41.223Z,100733.61
2018-04-24T08:54:10.444Z,100732.94
2018-04-24T08:56:38.740Z,100727.90
2018-04-24T08:59:07.068Z,100726.63
2018-04-24T09:01:36.194Z,100733.28
2018-04-24T09:04:04.574Z,100729.63
2018-04-24T09:06:32.908Z,100732.45
2018-04-24T09:09:01.261Z,100729.41
2018-04-24T09:11:29.591Z,100727.84
2018-04-24T09:13:57.969Z,100731.87
2018-04-24T09:16:26.277Z,100731.34
2018-04-24T09:18:54.636Z,100711.77
2018-04-24T09:21:22.971Z,100718.89
2018-04-24T09:23:51.334Z,100714.23
2018-04-24T09:26:19.698Z,100712.17
2018-04-24T09:28:48.042Z,100718.18
2018-04-24T09:31:16.413Z,100707.27
2018-04-24T09:33:44.810Z,100708.35
2018-04-24T09:36:13.896Z,100704.82
2018-04-24T09:38:42.243Z,100702.98
2018-04-24T09:41:11.389Z,100704.66
2018-04-24T09:43:39.741Z,100699.34
2018-04-24T09:46:08.095Z,100706.16
2018-04-24T09:48:37.179Z,100715.03
2018-04-24T09:51:06.321Z,100716.94
2018-04-24T09:53:34.648Z,100716.66
2018-04-24T09:56:03.036Z,100714.30
2018-04-24T09:58:32.138Z,100714.53
2018-04-24T10:01:01.251Z,100716.23
2018-04-24T10:03:29.603Z,100717.42
2018-04-24T10:05:57.919Z,100709.57
2018-04-24T10:08:27.048Z,100714.63
2018-04-24T10:10:55.360Z,100716.91
2018-04-24T10:13:24.528Z,100724.17
2018-04-24T10:15:52.823Z,100716.89
2018-04-24T10:18:21.119Z,100700.44
2018-04-24T10:20:50.261Z,100700.70
2018-04-24T10:23:18.608Z,100698.92
2018-04-24T10:25:46.962Z,100696.30
2018-04-24T10:28:16.061Z,100691.59
2018-04-24T10:30:45.203Z,100691.20
2018-04-24T10:33:13.520Z,100690.81
2018-04-24T10:35:41.880Z,100691.01
2018-04-24T10:38:10.195Z,100684.20
2018-04-24T10:40:38.962Z,100665.46
2018-04-24T10:43:08.093Z,100663.31
2018-04-24T10:45:36.391Z,100677.02
2018-04-24T10:48:04.818Z,100659.16
2018-04-24T10:50:33.081Z,100662.50
2018-04-24T10:53:01.458Z,100663.31
2018-04-24T10:55:29.793Z,100666.80
2018-04-24T10:57:58.146Z,100671.17
2018-04-24T11:00:26.490Z,100668.44
2018-04-24T11:02:54.854Z,100666.48
2018-04-24T11:05:23.170Z,100669.56
2018-04-24T11:07:52.280Z,100666.27
2018-04-24T11:10:20.615Z,100680.39
2018-04-24T11:12:48.985Z,100673.66
2018-04-24T11:15:17.317Z,100670.73
2018-04-24T11:17:46.440Z,100680.02
2018-04-24T11:20:14.840Z,100680.78
2018-04-24T11:22:43.173Z,100682.81
2018-04-24T11:25:11.521Z,100680.28
2018-04-24T11:27:40.228Z,100672.73
2018-04-24T11:30:08.558Z,100670.38
2018-04-24T11:32:36.910Z,100676.69
2018-04-24T11:35:05.375Z,100673.98
2018-04-24T11:37:33.677Z,100677.80
2018-04-24T11:40:02.034Z,100671.48
2018-04-24T11:42:30.518Z,100670.70
2018-04-24T11:44:58.881Z,100668.33
2018-04-24T11:47:27.256Z,100666.38
2018-04-24T11:49:55.609Z,100670.77
2018-04-24T11:52:24.691Z,100663.84
2018-04-24T11:54:53.043Z,100673.57
2018-04-24T11:57:21.405Z,100673.22
2018-04-24T11:59:49.737Z,100678.00
2018-04-24T12:02:18.868Z,100674.16
2018-04-24T12:04:47.231Z,100683.64
2018-04-24T12:07:15.628Z,100675.02
2018-04-24T12:09:44.080Z,100683.23
2018-04-24T12:12:13.224Z,100676.48
2018-04-24T12:14:41.595Z,100676.14
2018-04-24T12:17:09.936Z,100681.16
2018-04-24T12:19:38.300Z,100676.60
2018-04-24T12:22:07.394Z,100677.90
2018-04-24T12:24:36.525Z,100682.00
2018-04-24T12:27:04.847Z,100684.52
2018-04-24T12:29:33.205Z,100688.78
2018-04-24T12:32:01.575Z,100696.38
2018-04-24T12:34:29.906Z,100702.05
2018-04-24T12:36:59.010Z,100702.05
2018-04-24T12:39:27.353Z,100701.98
2018-04-24T12:41:55.731Z,100708.62
2018-04-24T12:44:24.045Z,100710.06
2018-04-24T12:46:53.147Z,100706.48
2018-04-24T12:49:21.500Z,100704.23
2018-04-24T12:51:50.618Z,100712.53
2018-04-24T12:54:19.118Z,100713.39
2018-04-24T12:56:48.213Z,100703.67
2018-04-24T12:59:16.590Z,100707.84
2018-04-24T13:01:44.913Z,100705.74
2018-04-24T13:04:13.258Z,100710.95
2018-04-24T13:06:41.624Z,100717.76
2018-04-24T13:09:09.945Z,100721.54
2018-04-24T13:11:38.261Z,100715.92
2018-04-24T13:14:06.617Z,100717.82
2018-04-24T13:16:35.769Z,100721.20
2018-04-24T13:19:04.089Z,100726.15
2018-04-24T13:21:33.192Z,100728.39
2018-04-24T13:24:02.272Z,100726.89
2018-04-24T13:26:30.638Z,100727.55
2018-04-24T13:28:58.978Z,100721.48
2018-04-24T13:31:27.340Z,100721.39
2018-04-24T13:33:55.666Z,100727.71
2018-04-24T13:36:24.004Z,100732.00
2018-04-24T13:38:53.141Z,100730.33
2018-04-24T13:41:21.508Z,100728.41
2018-04-24T13:43:49.850Z,100726.50
2018-04-24T13:46:18.177Z,100727.22
2018-04-24T13:48:46.577Z,100731.72
2018-04-24T13:51:14.865Z,100729.80
2018-04-24T13:53:43.266Z,100721.61
2018-04-24T13:56:12.361Z,100728.60
2018-04-24T13:58:40.711Z,100731.53
2018-04-24T14:01:09.813Z,100738.27
2018-04-24T14:03:38.159Z,100731.17
2018-04-24T14:06:06.497Z,100728.92
2018-04-24T14:08:34.837Z,100736.61
2018-04-24T14:11:03.201Z,100725.38
2018-04-24T14:13:32.316Z,100729.36
2018-04-24T14:16:00.761Z,100735.91
2018-04-24T14:18:29.114Z,100734.51
2018-04-24T14:20:57.482Z,100735.01
2018-04-24T14:23:25.819Z,100735.54
2018-04-24T14:25:54.929Z,100736.13
2018-04-24T14:28:23.269Z,100739.22
2018-04-24T14:30:51.625Z,100734.22
2018-04-24T14:33:19.987Z,100729.69
2018-04-24T14:35:49.199Z,100722.98
2018-04-24T14:38:17.557Z,100706.75
2018-04-24T14:40:45.933Z,100708.91
2018-04-24T14:43:14.256Z,100711.55
2018-04-24T14:45:42.597Z,100701.95
2018-04-24T14:48:10.956Z,100707.05
2018-04-24T14:50:39.308Z,100721.00
2018-04-24T14:53:07.647Z,100720.91
2018-04-24T14:55:35.969Z,100722.50
2018-04-24T14:58:05.063Z,100727.80
2018-04-24T15:00:34.148Z,100727.22
2018-04-24T15:03:03.292Z,100729.61
2018-04-24T15:05:32.205Z,100731.06
2018-04-24T15:08:00.561Z,100736.82
2018-04-24T15:10:28.938Z,100737.41
2018-04-24T15:12:57.292Z,100732.16
2018-04-24T15:15:25.613Z,100731.23
2018-04-24T15:17:53.960Z,100728.80
2018-04-24T15:20:22.275Z,100719.52
2018-04-24T15:22:50.622Z,100722.08
2018-04-24T15:25:18.973Z,100717.00
2018-04-24T15:27:47.322Z,100718.40
2018-04-24T15:30:16.443Z,100716.81
2018-04-24T15:32:44.781Z,100711.89
2018-04-24T15:35:13.166Z,100719.27
2018-04-24T15:37:42.278Z,100722.55
2018-04-24T15:40:11.416Z,100718.30
2018-04-24T15:42:40.537Z,100709.98
2018-04-24T15:45:08.907Z,100708.38
2018-04-24T15:47:37.232Z,100706.88
2018-04-24T15:50:06.366Z,100698.28
2018-04-24T15:52:34.736Z,100696.76
2018-04-24T15:55:03.114Z,100705.28
2018-04-24T15:57:31.497Z,100703.47
2018-04-24T15:59:59.847Z,100706.75
2018-04-24T16:02:28.209Z,100697.59
2018-04-24T16:04:57.353Z,100701.41
2018-04-24T16:07:25.711Z,100698.86
2018-04-24T16:09:54.029Z,100693.68
2018-04-24T16:12:23.147Z,100690.84
2018-04-24T16:14:51.484Z,100686.70
2018-04-24T16:17:19.835Z,100685.72
2018-04-24T16:19:48.164Z,100689.78
2018-04-24T16:22:16.575Z,100692.08
2018-04-24T16:24:45.713Z,100686.83
2018-04-24T16:27:14.104Z,100678.86
2018-04-24T16:29:43.193Z,100682.27
2018-04-24T16:32:11.483Z,100681.00
2018-04-24T16:34:39.835Z,100677.09
2018-04-24T16:37:08.142Z,100676.81
2018-04-24T16:39:36.584Z,100668.30
2018-04-24T16:42:04.910Z,100662.84
2018-04-24T16:44:33.263Z,100667.67
2018-04-24T16:47:01.604Z,100661.28
2018-04-24T16:49:29.936Z,100665.63
2018-04-24T16:51:58.313Z,100664.14
2018-04-24T16:54:26.767Z,100660.87
2018-04-24T16:56:55.092Z,100655.59
2018-04-24T16:59:24.653Z,100663.61
2018-04-24T17:01:54.384Z,100663.11
2018-04-24T17:04:22.695Z,100660.16
2018-04-24T17:06:51.904Z,100662.34
2018-04-24T17:09:21.440Z,100662.78
2018-04-24T17:11:49.784Z,100663.72
2018-04-24T17:14:18.488Z,100655.01
2018-04-24T17:16:46.969Z,100657.27
2018-04-24T17:19:16.765Z,100663.66
2018-04-24T17:21:45.977Z,100669.45
2018-04-24T17:24:14.382Z,100658.95
2018-04-24T17:26:42.698Z,100665.45
2018-04-24T17:29:11.814Z,100663.56
2018-04-24T17:31:40.123Z,100660.61
2018-04-24T17:34:08.545Z,100660.67
2018-04-24T17:36:37.791Z,100655.85
2018-04-24T17:39:07.790Z,100654.74
2018-04-24T17:41:36.132Z,100652.27
2018-04-24T17:44:05.287Z,100661.33
2018-04-24T17:46:33.627Z,100664.30
2018-04-24T17:49:02.620Z,100672.45
2018-04-24T17:51:30.942Z,100675.65
2018-04-24T17:54:00.083Z,100668.70
2018-04-24T17:56:28.579Z,100680.41
2018-04-24T17:58:56.925Z,100684.66
2018-04-24T18:01:25.540Z,100686.31
2018-04-24T18:03:55.133Z,100687.21
2018-04-24T18:06:25.705Z,100685.48
2018-04-24T18:08:54.072Z,100686.61
2018-04-24T18:11:22.486Z,100685.37
2018-04-24T18:13:51.558Z,100685.37
2018-04-24T18:16:19.978Z,100686.36
2018-04-24T18:18:49.130Z,100683.78
2018-04-24T18:21:17.511Z,100685.82
2018-04-24T18:23:45.871Z,100677.23
2018-04-24T18:26:14.209Z,100674.70
2018-04-24T18:28:44.421Z,100677.07
2018-04-24T18:31:13.016Z,100680.66
2018-04-24T18:33:42.302Z,100682.95
2018-04-24T18:36:10.830Z,100681.20
2018-04-24T18:38:39.220Z,100675.66
2018-04-24T18:41:07.579Z,100678.05
2018-04-24T18:43:35.927Z,100673.41
2018-04-24T18:46:05.096Z,100681.30
2018-04-24T18:48:33.460Z,100683.02
2018-04-24T18:51:01.821Z,100676.67
2018-04-24T18:53:31.099Z,100686.38
2018-04-24T18:55:59.515Z,100676.12
2018-04-24T18:58:28.721Z,100680.17
2018-04-24T19:00:57.946Z,100680.78
2018-04-24T19:03:26.966Z,100680.14
2018-04-24T19:05:55.324Z,100685.34
2018-04-24T19:08:24.592Z,100681.19
2018-04-24T19:10:52.938Z,100678.34
2018-04-24T19:13:21.383Z,100675.86
2018-04-24T19:15:49.700Z,100674.67
2018-04-24T19:18:18.078Z,100670.45
2018-04-24T19:20:46.422Z,100674.19
2018-04-24T19:23:15.513Z,100679.62
2018-04-24T19:25:43.906Z,100673.86
2018-04-24T19:28:12.310Z,100676.17
2018-04-24T19:30:41.491Z,100681.64
2018-04-24T19:33:09.860Z,100676.80
2018-04-24T19:35:38.307Z,100672.06
2018-04-24T19:38:06.714Z,100675.62
2018-04-24T19:40:41.155Z,100669.45
2018-04-24T19:43:09.539Z,100678.47
2018-04-24T19:45:37.958Z,100669.82
2018-04-24T19:48:06.357Z,100668.59
2018-04-24T19:50:34.680Z,100668.75
2018-04-24T19:53:03.133Z,100669.75
2018-04-24T19:55:31.453Z,100669.41
2018-04-24T19:57:59.844Z,100665.99
2018-04-24T20:00:28.186Z,100670.48
2018-04-24T20:02:56.538Z,100668.30
2018-04-24T20:05:26.347Z,100670.64
2018-04-24T20:07:55.461Z,100664.16
2018-04-24T20:10:23.851Z,100660.20
2018-04-24T20:12:52.242Z,100657.05
2018-04-24T20:15:21.016Z,100661.13
2018-04-24T20:17:49.397Z,100659.39
2018-04-24T20:20:17.749Z,100652.92
2018-04-24T20:22:46.908Z,100658.70
2018-04-24T20:25:15.269Z,100658.88
2018-04-24T20:27:43.736Z,100662.97
2018-04-24T20:30:12.064Z,100656.38
2018-04-24T20:32:41.200Z,100648.52
2018-04-24T20:35:09.543Z,100650.75
2018-04-24T20:37:38.717Z,100648.14
2018-04-24T20:40:08.551Z,100647.73
2018-04-24T20:42:37.685Z,100648.19
2018-04-24T20:45:07.153Z,100644.66
2018-04-24T20:47:36.664Z,100635.30
2018-04-24T20:50:05.760Z,100627.88
2018-04-24T20:52:34.119Z,100623.92
2018-04-24T20:55:02.491Z,100626.56
2018-04-24T20:57:30.868Z,100618.61
2018-04-24T21:00:01.584Z,100623.06
2018-04-24T21:02:29.942Z,100622.72
2018-04-24T21:05:01.384Z,100621.98
2018-04-24T21:21:20.119Z,100606.72
2018-04-24T21:23:49.070Z,100604.13
2018-04-24T21:26:17.393Z,100607.64
2018-04-24T21:28:45.762Z,100604.14
2018-04-24T21:31:14.081Z,100593.56
2018-04-24T21:33:42.452Z,100598.36
2018-04-24T21:36:13.773Z,100594.64
2018-04-24T21:38:43.032Z,100596.70
2018-04-24T21:41:11.875Z,100583.13
2018-04-24T21:43:41.649Z,100582.02
2018-04-24T21:46:10.805Z,100583.66
2018-04-24T21:48:39.387Z,100579.96
2018-04-24T21:51:07.865Z,100581.58
2018-04-24T21:53:38.455Z,100574.84
2018-04-24T21:56:08.005Z,100576.00
2018-04-24T21:58:36.736Z,100575.34
2018-04-24T22:01:07.723Z,100569.95
2018-04-24T22:03:37.904Z,100568.96
2018-04-24T22:06:06.277Z,100569.36
2018-04-24T22:08:34.745Z,100568.95
2018-04-24T22:11:04.662Z,100566.73
2018-04-24T22:13:33.122Z,100559.66
2018-04-24T22:16:02.021Z,100557.90
2018-04-24T22:18:32.169Z,100554.75
2018-04-24T22:21:01.461Z,100550.36
2018-04-24T22:23:29.725Z,100543.25
2018-04-24T22:26:05.348Z,100544.91
2018-04-24T22:28:33.773Z,100539.97
2018-04-24T22:31:06.921Z,100536.75
2018-04-24T22:33:35.938Z,100539.30
2018-04-24T22:36:05.179Z,100530.75
2018-04-24T22:38:38.214Z,100527.04
2018-04-24T22:41:09.222Z,100520.68
2018-04-24T22:43:38.235Z,100517.09
2018-04-24T22:46:06.746Z,100508.58
2018-04-24T22:48:35.133Z,100510.72
2018-04-24T22:51:03.473Z,100505.38
2018-04-24T22:53:31.840Z,100497.83
2018-04-24T22:56:00.952Z,100496.87
2018-04-24T22:58:30.095Z,100493.23
2018-04-24T23:00:58.453Z,100485.23
2018-04-24T23:03:26.781Z,100482.95
2018-04-24T23:05:55.165Z,100478.44
2018-04-24T23:08:23.485Z,100481.52
2018-04-24T23:11:09.620Z,100480.20
2018-04-24T23:13:55.636Z,100478.88
2018-04-24T23:16:41.681Z,100473.13
2018-04-24T23:19:27.747Z,100474.09
2018-04-24T23:21:55.296Z,100470.56
2018-04-24T23:24:24.450Z,100467.05
2018-04-24T23:26:52.790Z,100462.16
2018-04-24T23:29:22.760Z,100454.56
2018-04-24T23:31:51.097Z,100448.81
2018-04-24T23:34:19.561Z,100441.40
2018-04-24T23:36:47.988Z,100440.60
2018-04-24T23:39:16.326Z,100441.19
2018-04-24T23:41:47.011Z,100435.11
2018-04-24T23:44:15.333Z,100429.50
2018-04-24T23:46:43.725Z,100433.55
2018-04-24T23:49:12.546Z,100427.01
2018-04-24T23:51:40.914Z,100422.16
2018-04-24T23:54:09.421Z,100418.59
2018-04-24T23:56:37.944Z,100415.88
2018-04-24T23:59:07.223Z,100410.58
